Eagle — WBP2187 — position and weather

sailwx.info

Track history (hours):
 
Tides and Currents Weather Stations Pressure Air Temp Water Temp Dewpoint Dewpoint Depression Visibility Wind Speed Wind Dir Waves Ship Positions

Eagle

Owner: Harley Marine Services, INC, SEATTLE, WA. More information available from US FCC via Universal Licensing System and Coast Guard Vessel Documentation Center.

Last reported at 2015-Jul-31 04:33 UTC. Time now 2015-Jul-31 05:03 UTC.
Position N 48°50' W 122°43'.

Length 32 m; draft 4 m.

Type: Tow > 200 m length. MMSI: 366978690.

Date/timePositionNaut miles runAvg speedWind from/ knotsBaromVisibWave heightAir tempDewpointWater temp
2015-Jul-31 04:33N 48°50' W 122°43'0 0.0
2015-Jul-31 03:33N 48°50' W 122°43'0 0.0
2015-Jul-31 02:33N 48°50' W 122°43'0 0.0
2015-Jul-31 01:09N 48°50' W 122°43'0 0.0
2015-Jul-31 00:29N 48°50' W 122°43'0 0.0
2015-Jul-30 23:33N 48°50' W 122°43'0 0.0
2015-Jul-30 21:15N 48°50' W 122°43'0 0.0
2015-Jul-30 20:31N 48°50' W 122°43'0 0.0
2015-Jul-30 19:32N 48°50' W 122°43'3 3.2
2015-Jul-30 18:33N 48°47' W 122°44'7 7.0
2015-Jul-30 17:33N 48°40' W 122°42'5 5.3
2015-Jul-30 16:33N 48°35' W 122°45'5 5.0
2015-Jul-30 15:33N 48°30' W 122°44'6 5.6
2015-Jul-30 14:33N 48°24' W 122°44'17 7.7
2015-Jul-30 12:16N 48°07' W 122°39'7 9.9
2015-Jul-30 11:32N 47°60' W 122°36'7 9.2
2015-Jul-30 10:46N 47°55' W 122°28'2 8.8
2015-Jul-30 10:33N 47°53' W 122°28'010.4
2015-Jul-30 10:31N 47°53' W 122°28'8 8.6
2015-Jul-30 09:33N 47°44' W 122°26'0 8.6
2015-Jul-30 09:31N 47°44' W 122°26'7 7.7
2015-Jul-30 08:33N 47°37' W 122°24'0 8.4
2015-Jul-30 08:31N 47°37' W 122°23'2 2.3
2015-Jul-30 07:33N 47°35' W 122°21'0 1.8
2015-Jul-30 07:31N 47°35' W 122°21'0 0.1
2015-Jul-30 06:41N 47°35' W 122°21'0 0.1
2015-Jul-30 06:33N 47°35' W 122°21'0 0.0
2015-Jul-30 06:26N 47°35' W 122°21'1 1.1
2015-Jul-30 05:33N 47°34' W 122°21'0 0.0
2015-Jul-30 04:40N 47°34' W 122°21'0 0.1
2015-Jul-30 04:33N 47°34' W 122°21'0 0.0
2015-Jul-30 03:33N 47°34' W 122°21'0 0.1
2015-Jul-30 03:30N 47°34' W 122°21'0 0.0
2015-Jul-30 02:33N 47°34' W 122°21'0 0.0
2015-Jul-30 02:30N 47°34' W 122°21'0 0.0
2015-Jul-30 01:33N 47°34' W 122°21'0 0.0
2015-Jul-30 01:30N 47°34' W 122°21'0 0.0
2015-Jul-30 00:33N 47°34' W 122°21'0 0.0
2015-Jul-30 00:30N 47°34' W 122°21'0 0.0
2015-Jul-29 23:33N 47°34' W 122°21'0 0.0
2015-Jul-29 23:30N 47°34' W 122°21'0 0.0
2015-Jul-29 22:33N 47°34' W 122°21'0 0.0
2015-Jul-29 22:29N 47°34' W 122°21'1 1.2
2015-Jul-29 21:33N 47°35' W 122°21'0 5.0
2015-Jul-29 21:29N 47°35' W 122°21'0 0.0
2015-Jul-29 20:33N 47°35' W 122°21'0 0.0
2015-Jul-29 20:29N 47°35' W 122°21'0 0.0
2015-Jul-29 19:33N 47°35' W 122°21'0 0.0
2015-Jul-29 19:29N 47°35' W 122°21'0 0.0
2015-Jul-29 18:33N 47°35' W 122°21'0 0.0
2015-Jul-29 18:29N 47°35' W 122°21'0 0.0
2015-Jul-29 17:33N 47°35' W 122°21'0 0.0
2015-Jul-29 17:29N 47°35' W 122°21'0 0.3
2015-Jul-29 16:33N 47°35' W 122°21'0 0.5
2015-Jul-29 15:42N 47°35' W 122°21'1 3.9
2015-Jul-29 15:33N 47°34' W 122°21'0 0.2
2015-Jul-29 15:32N 47°34' W 122°21'0 0.0
2015-Jul-29 14:33N 47°34' W 122°21'0 0.0
2015-Jul-29 14:32N 47°34' W 122°21'0 0.0
2015-Jul-29 13:33N 47°34' W 122°21'0 0.2
2015-Jul-29 13:32N 47°34' W 122°21'0 0.0
2015-Jul-29 12:33N 47°34' W 122°21'0 0.0
2015-Jul-29 12:32N 47°34' W 122°21'0 0.0
2015-Jul-29 11:33N 47°34' W 122°21'0 0.0
2015-Jul-29 11:32N 47°34' W 122°21'0 0.0
2015-Jul-29 10:33N 47°34' W 122°21'0 0.0
2015-Jul-29 10:32N 47°34' W 122°21'0 0.0
2015-Jul-29 09:33N 47°34' W 122°21'0 0.3
2015-Jul-29 09:32N 47°34' W 122°21'0 0.0
2015-Jul-29 08:33N 47°34' W 122°21'0 0.0
2015-Jul-29 08:31N 47°34' W 122°21'0 0.0
2015-Jul-29 07:33N 47°34' W 122°21'0 0.0
2015-Jul-29 07:31N 47°34' W 122°21'0 0.0
2015-Jul-29 06:33N 47°34' W 122°21'0 0.2
2015-Jul-29 06:31N 47°34' W 122°21'1 1.1
2015-Jul-29 06:01N 47°35' W 122°21'1 2.8
2015-Jul-29 05:33N 47°36' W 122°22'6 5.9
2015-Jul-29 04:33N 47°40' W 122°29'0 6.8
2015-Jul-29 04:31N 47°40' W 122°28'6 6.7
2015-Jul-29 03:33N 47°46' W 122°27'0 6.6
2015-Jul-29 03:31N 47°47' W 122°27'6 6.6
2015-Jul-29 02:33N 47°53' W 122°29'0 6.3
2015-Jul-29 02:31N 47°53' W 122°29'5 5.6
2015-Jul-29 01:33N 47°57' W 122°35'0 5.3
2015-Jul-29 01:31N 47°57' W 122°35'14 6.2
2015-Jul-28 23:13N 48°10' W 122°46'5 7.3
2015-Jul-28 22:31N 48°14' W 122°49'7 6.9
2015-Jul-28 21:30N 48°21' W 122°46'6 5.6
2015-Jul-28 20:29N 48°27' W 122°45'4 4.8
2015-Jul-28 19:33N 48°31' W 122°45'5 5.3
2015-Jul-28 18:33N 48°36' W 122°46'6 6.0
2015-Jul-28 17:33N 48°42' W 122°45'7 6.7
2015-Jul-28 16:33N 48°49' W 122°44'1 0.7
2015-Jul-28 15:33N 48°50' W 122°43'0 0.0
2015-Jul-28 11:33N 48°50' W 122°43'0 0.0
2015-Jul-28 10:33N 48°50' W 122°43'0 0.0
2015-Jul-28 09:33N 48°50' W 122°43'0 0.0
2015-Jul-28 08:33N 48°50' W 122°43'0 0.0
2015-Jul-28 07:33N 48°50' W 122°43'0 0.0
2015-Jul-28 06:20N 48°50' W 122°43'0 0.0
2015-Jul-28 05:33N 48°50' W 122°43'0 0.0
2015-Jul-28 04:20N 48°50' W 122°43'0 0.0
2015-Jul-28 03:28N 48°50' W 122°43'0 0.0
2015-Jul-28 02:33N 48°50' W 122°43'2 1.7
2015-Jul-28 01:31N 48°48' W 122°45'7 7.0
2015-Jul-28 00:33N 48°42' W 122°43'7 7.5
2015-Jul-27 23:33N 48°34' W 122°45'3 9.0
2015-Jul-27 23:12N 48°31' W 122°44'6 9.3
2015-Jul-27 22:32N 48°25' W 122°44'23 6.7
2015-Jul-27 19:09N 48°03' W 122°38'5 7.6
2015-Jul-27 18:31N 47°58' W 122°34'5 8.3
2015-Jul-27 17:52N 47°55' W 122°28'3 9.2
2015-Jul-27 17:33N 47°52' W 122°27'0 8.2
2015-Jul-27 17:32N 47°52' W 122°27'9 9.5
2015-Jul-27 16:33N 47°42' W 122°26'0 8.4
2015-Jul-27 16:32N 47°42' W 122°26'7 7.4
2015-Jul-27 15:33N 47°36' W 122°22'0 0.2
2015-Jul-27 15:32N 47°36' W 122°22'2 1.6
2015-Jul-27 14:33N 47°34' W 122°21'0 0.0
2015-Jul-27 14:32N 47°34' W 122°21'0 0.0
2015-Jul-27 13:33N 47°34' W 122°21'0 0.2
2015-Jul-27 13:31N 47°34' W 122°21'0 0.0
2015-Jul-27 12:33N 47°34' W 122°21'0 0.0
2015-Jul-27 12:32N 47°34' W 122°21'0 0.0
2015-Jul-27 11:33N 47°34' W 122°21'0 0.0
2015-Jul-27 11:31N 47°34' W 122°21'0 0.0
2015-Jul-27 10:33N 47°34' W 122°21'0 0.0
2015-Jul-27 10:31N 47°34' W 122°21'0 0.0
2015-Jul-27 09:33N 47°34' W 122°21'0 0.0
2015-Jul-27 09:31N 47°34' W 122°21'0 0.0
2015-Jul-27 08:33N 47°34' W 122°21'0 0.2
2015-Jul-27 08:31N 47°34' W 122°21'0 0.0
2015-Jul-27 07:33N 47°34' W 122°21'0 0.0
2015-Jul-27 07:31N 47°34' W 122°21'0 0.0
2015-Jul-27 06:33N 47°34' W 122°21'0 0.0
2015-Jul-27 06:31N 47°34' W 122°21'0 0.0
2015-Jul-27 06:06N 47°34' W 122°21'0 0.0
2015-Jul-27 05:33N 47°34' W 122°21'0 0.0
2015-Jul-27 04:33N 47°34' W 122°21'0 0.1
2015-Jul-27 04:31N 47°34' W 122°21'0 0.0
2015-Jul-27 03:33N 47°34' W 122°21'0 0.1
2015-Jul-27 03:31N 47°34' W 122°21'0 0.0
2015-Jul-27 02:33N 47°34' W 122°21'0 0.0
2015-Jul-27 02:31N 47°34' W 122°21'0 0.1
2015-Jul-27 01:33N 47°34' W 122°21'0 0.8
2015-Jul-27 01:30N 47°34' W 122°21'0 0.1
2015-Jul-27 00:33N 47°34' W 122°21'0 0.0
2015-Jul-27 00:30N 47°34' W 122°21'0 0.0
2015-Jul-26 23:33N 47°34' W 122°21'0 0.0
2015-Jul-26 23:30N 47°34' W 122°21'0 0.0
2015-Jul-26 22:33N 47°34' W 122°21'0 0.0
2015-Jul-26 22:30N 47°34' W 122°21'0 0.0
2015-Jul-26 21:33N 47°34' W 122°21'0 0.1
2015-Jul-26 21:30N 47°34' W 122°21'0 0.0
2015-Jul-26 20:33N 47°34' W 122°21'0 0.0
2015-Jul-26 20:25N 47°34' W 122°21'0 0.0
2015-Jul-26 19:33N 47°34' W 122°21'0 0.0
2015-Jul-26 19:30N 47°34' W 122°21'0 0.0
2015-Jul-26 18:33N 47°34' W 122°21'0 0.0
2015-Jul-26 18:30N 47°34' W 122°21'0 0.0
2015-Jul-26 17:33N 47°34' W 122°21'0 0.1
2015-Jul-26 17:30N 47°34' W 122°21'0 0.0
2015-Jul-26 16:33N 47°34' W 122°21'0 0.0
2015-Jul-26 16:24N 47°34' W 122°21'0 0.0
2015-Jul-26 15:33N 47°34' W 122°21'0 0.0
2015-Jul-26 14:33N 47°34' W 122°21'0 0.1
2015-Jul-26 13:30N 47°34' W 122°21'1 1.5
2015-Jul-26 12:58N 47°35' W 122°21'2 4.6
2015-Jul-26 12:33N 47°36' W 122°23'0 0.6
2015-Jul-26 12:29N 47°36' W 122°23'5 5.8
2015-Jul-26 11:33N 47°40' W 122°28'1 8.0
2015-Jul-26 11:29N 47°41' W 122°28'7 7.9
2015-Jul-26 10:33N 47°48' W 122°28'1 8.0
2015-Jul-26 10:29N 47°49' W 122°28'7 7.7
2015-Jul-26 09:33N 47°56' W 122°31'8 7.5
2015-Jul-26 08:33N 48°01' W 122°38'9 7.4
2015-Jul-26 07:22N 48°09' W 122°45'7 8.4
2015-Jul-26 06:32N 48°11' W 122°55'3 8.5
2015-Jul-26 06:07N 48°11' W 123°00'5 8.4
2015-Jul-26 05:33N 48°12' W 123°07'9 8.7
2015-Jul-26 04:33N 48°12' W 123°20'1 8.6
2015-Jul-26 04:27N 48°12' W 123°22'8 8.6
2015-Jul-26 03:33N 48°12' W 123°33'1 7.8
2015-Jul-26 03:27N 48°12' W 123°34'7 7.8
2015-Jul-26 02:33N 48°12' W 123°45'5 7.7
2015-Jul-26 01:52N 48°12' W 123°53'3 7.5
2015-Jul-26 01:27N 48°13' W 123°57'1 7.9
2015-Jul-26 01:23N 48°13' W 123°58'6 7.5
2015-Jul-26 00:33N 48°16' W 124°07'7 7.3
2015-Jul-25 23:33N 48°19' W 124°17'7 7.3
2015-Jul-25 22:33N 48°22' W 124°26'7 6.8
2015-Jul-25 21:33N 48°25' W 124°36'8 8.0
2015-Jul-25 20:32N 48°27' W 124°47'8 7.8
2015-Jul-25 19:33N 48°25' W 124°59'101 7.8
2015-Jul-25 06:31N 46°44' W 125°15'9 8.2
2015-Jul-25 05:28N 46°36' W 125°14'8 8.2
2015-Jul-25 04:32N 46°28' W 125°13'10 7.9
2015-Jul-25 03:16N 46°18' W 125°13'6 7.8
2015-Jul-25 02:33N 46°13' W 125°12'7 7.3
2015-Jul-25 01:33N 46°05' W 125°10'7 7.5
2015-Jul-25 00:33N 45°58' W 125°08'8 7.7
2015-Jul-24 23:33N 45°51' W 125°06'9 7.5
2015-Jul-24 22:18N 45°41' W 125°03'6 7.9
2015-Jul-24 21:33N 45°35' W 125°04'56 7.9
2015-Jul-24 14:32N 44°40' W 125°11'  
2015-Jul-21 15:25N 38°42' W 123°52'15 4.5
2015-Jul-21 12:05N 38°30' W 123°40'3 5.7
2015-Jul-21 11:33N 38°28' W 123°38'6 6.0
2015-Jul-21 10:33N 38°23' W 123°33'6 6.1
2015-Jul-21 09:33N 38°18' W 123°29'6 6.5
2015-Jul-21 08:33N 38°13' W 123°24'7 6.8
2015-Jul-21 07:33N 38°08' W 123°18'6 6.4
2015-Jul-21 06:33N 38°03' W 123°13'6 6.1
2015-Jul-21 05:33N 37°58' W 123°08'6 6.1
2015-Jul-21 04:33N 37°55' W 123°01'  
Track history (hours):
 
Tides and Currents Weather Stations Pressure Air Temp Water Temp Dewpoint Dewpoint Depression Visibility Wind Speed Wind Dir Waves Ship Positions

Eagle

Owner: Harley Marine Services, INC, SEATTLE, WA. More information available from US FCC via Universal Licensing System and Coast Guard Vessel Documentation Center.

Last reported at 2015-Jul-31 04:33 UTC. Time now 2015-Jul-31 05:03 UTC.
Position N 48°50' W 122°43'.

Length 32 m; draft 4 m.

Type: Tow > 200 m length. MMSI: 366978690.

Date/timePositionNaut miles runAvg speedWind from/ knotsBaromVisibWave heightAir tempDewpointWater temp
2015-Jul-31 04:33N 48°50' W 122°43'0 0.0
2015-Jul-31 03:33N 48°50' W 122°43'0 0.0
2015-Jul-31 02:33N 48°50' W 122°43'0 0.0
2015-Jul-31 01:09N 48°50' W 122°43'0 0.0
2015-Jul-31 00:29N 48°50' W 122°43'0 0.0
2015-Jul-30 23:33N 48°50' W 122°43'0 0.0
2015-Jul-30 21:15N 48°50' W 122°43'0 0.0
2015-Jul-30 20:31N 48°50' W 122°43'0 0.0
2015-Jul-30 19:32N 48°50' W 122°43'3 3.2
2015-Jul-30 18:33N 48°47' W 122°44'7 7.0
2015-Jul-30 17:33N 48°40' W 122°42'5 5.3
2015-Jul-30 16:33N 48°35' W 122°45'5 5.0
2015-Jul-30 15:33N 48°30' W 122°44'6 5.6
2015-Jul-30 14:33N 48°24' W 122°44'17 7.7
2015-Jul-30 12:16N 48°07' W 122°39'7 9.9
2015-Jul-30 11:32N 47°60' W 122°36'7 9.2
2015-Jul-30 10:46N 47°55' W 122°28'2 8.8
2015-Jul-30 10:33N 47°53' W 122°28'010.4
2015-Jul-30 10:31N 47°53' W 122°28'8 8.6
2015-Jul-30 09:33N 47°44' W 122°26'0 8.6
2015-Jul-30 09:31N 47°44' W 122°26'7 7.7
2015-Jul-30 08:33N 47°37' W 122°24'0 8.4
2015-Jul-30 08:31N 47°37' W 122°23'2 2.3
2015-Jul-30 07:33N 47°35' W 122°21'0 1.8
2015-Jul-30 07:31N 47°35' W 122°21'0 0.1
2015-Jul-30 06:41N 47°35' W 122°21'0 0.1
2015-Jul-30 06:33N 47°35' W 122°21'0 0.0
2015-Jul-30 06:26N 47°35' W 122°21'1 1.1
2015-Jul-30 05:33N 47°34' W 122°21'0 0.0
2015-Jul-30 04:40N 47°34' W 122°21'0 0.1
2015-Jul-30 04:33N 47°34' W 122°21'0 0.0
2015-Jul-30 03:33N 47°34' W 122°21'0 0.1
2015-Jul-30 03:30N 47°34' W 122°21'0 0.0
2015-Jul-30 02:33N 47°34' W 122°21'0 0.0
2015-Jul-30 02:30N 47°34' W 122°21'0 0.0
2015-Jul-30 01:33N 47°34' W 122°21'0 0.0
2015-Jul-30 01:30N 47°34' W 122°21'0 0.0
2015-Jul-30 00:33N 47°34' W 122°21'0 0.0
2015-Jul-30 00:30N 47°34' W 122°21'0 0.0
2015-Jul-29 23:33N 47°34' W 122°21'0 0.0
2015-Jul-29 23:30N 47°34' W 122°21'0 0.0
2015-Jul-29 22:33N 47°34' W 122°21'0 0.0
2015-Jul-29 22:29N 47°34' W 122°21'1 1.2
2015-Jul-29 21:33N 47°35' W 122°21'0 5.0
2015-Jul-29 21:29N 47°35' W 122°21'0 0.0
2015-Jul-29 20:33N 47°35' W 122°21'0 0.0
2015-Jul-29 20:29N 47°35' W 122°21'0 0.0
2015-Jul-29 19:33N 47°35' W 122°21'0 0.0
2015-Jul-29 19:29N 47°35' W 122°21'0 0.0
2015-Jul-29 18:33N 47°35' W 122°21'0 0.0
2015-Jul-29 18:29N 47°35' W 122°21'0 0.0
2015-Jul-29 17:33N 47°35' W 122°21'0 0.0
2015-Jul-29 17:29N 47°35' W 122°21'0 0.3
2015-Jul-29 16:33N 47°35' W 122°21'0 0.5
2015-Jul-29 15:42N 47°35' W 122°21'1 3.9
2015-Jul-29 15:33N 47°34' W 122°21'0 0.2
2015-Jul-29 15:32N 47°34' W 122°21'0 0.0
2015-Jul-29 14:33N 47°34' W 122°21'0 0.0
2015-Jul-29 14:32N 47°34' W 122°21'0 0.0
2015-Jul-29 13:33N 47°34' W 122°21'0 0.2
2015-Jul-29 13:32N 47°34' W 122°21'0 0.0
2015-Jul-29 12:33N 47°34' W 122°21'0 0.0
2015-Jul-29 12:32N 47°34' W 122°21'0 0.0
2015-Jul-29 11:33N 47°34' W 122°21'0 0.0
2015-Jul-29 11:32N 47°34' W 122°21'0 0.0
2015-Jul-29 10:33N 47°34' W 122°21'0 0.0
2015-Jul-29 10:32N 47°34' W 122°21'0 0.0
2015-Jul-29 09:33N 47°34' W 122°21'0 0.3
2015-Jul-29 09:32N 47°34' W 122°21'0 0.0
2015-Jul-29 08:33N 47°34' W 122°21'0 0.0
2015-Jul-29 08:31N 47°34' W 122°21'0 0.0
2015-Jul-29 07:33N 47°34' W 122°21'0 0.0
2015-Jul-29 07:31N 47°34' W 122°21'0 0.0
2015-Jul-29 06:33N 47°34' W 122°21'0 0.2
2015-Jul-29 06:31N 47°34' W 122°21'1 1.1
2015-Jul-29 06:01N 47°35' W 122°21'1 2.8
2015-Jul-29 05:33N 47°36' W 122°22'6 5.9
2015-Jul-29 04:33N 47°40' W 122°29'0 6.8
2015-Jul-29 04:31N 47°40' W 122°28'6 6.7
2015-Jul-29 03:33N 47°46' W 122°27'0 6.6
2015-Jul-29 03:31N 47°47' W 122°27'6 6.6
2015-Jul-29 02:33N 47°53' W 122°29'0 6.3
2015-Jul-29 02:31N 47°53' W 122°29'5 5.6
2015-Jul-29 01:33N 47°57' W 122°35'0 5.3
2015-Jul-29 01:31N 47°57' W 122°35'14 6.2
2015-Jul-28 23:13N 48°10' W 122°46'5 7.3
2015-Jul-28 22:31N 48°14' W 122°49'7 6.9
2015-Jul-28 21:30N 48°21' W 122°46'6 5.6
2015-Jul-28 20:29N 48°27' W 122°45'4 4.8
2015-Jul-28 19:33N 48°31' W 122°45'5 5.3
2015-Jul-28 18:33N 48°36' W 122°46'6 6.0
2015-Jul-28 17:33N 48°42' W 122°45'7 6.7
2015-Jul-28 16:33N 48°49' W 122°44'1 0.7
2015-Jul-28 15:33N 48°50' W 122°43'0 0.0
2015-Jul-28 11:33N 48°50' W 122°43'0 0.0
2015-Jul-28 10:33N 48°50' W 122°43'0 0.0
2015-Jul-28 09:33N 48°50' W 122°43'0 0.0
2015-Jul-28 08:33N 48°50' W 122°43'0 0.0
2015-Jul-28 07:33N 48°50' W 122°43'0 0.0
2015-Jul-28 06:20N 48°50' W 122°43'0 0.0
2015-Jul-28 05:33N 48°50' W 122°43'0 0.0
2015-Jul-28 04:20N 48°50' W 122°43'0 0.0
2015-Jul-28 03:28N 48°50' W 122°43'0 0.0
2015-Jul-28 02:33N 48°50' W 122°43'2 1.7
2015-Jul-28 01:31N 48°48' W 122°45'7 7.0
2015-Jul-28 00:33N 48°42' W 122°43'7 7.5
2015-Jul-27 23:33N 48°34' W 122°45'3 9.0
2015-Jul-27 23:12N 48°31' W 122°44'6 9.3
2015-Jul-27 22:32N 48°25' W 122°44'23 6.7
2015-Jul-27 19:09N 48°03' W 122°38'5 7.6
2015-Jul-27 18:31N 47°58' W 122°34'5 8.3
2015-Jul-27 17:52N 47°55' W 122°28'3 9.2
2015-Jul-27 17:33N 47°52' W 122°27'0 8.2
2015-Jul-27 17:32N 47°52' W 122°27'9 9.5
2015-Jul-27 16:33N 47°42' W 122°26'0 8.4
2015-Jul-27 16:32N 47°42' W 122°26'7 7.4
2015-Jul-27 15:33N 47°36' W 122°22'0 0.2
2015-Jul-27 15:32N 47°36' W 122°22'2 1.6
2015-Jul-27 14:33N 47°34' W 122°21'0 0.0
2015-Jul-27 14:32N 47°34' W 122°21'0 0.0
2015-Jul-27 13:33N 47°34' W 122°21'0 0.2
2015-Jul-27 13:31N 47°34' W 122°21'0 0.0
2015-Jul-27 12:33N 47°34' W 122°21'0 0.0
2015-Jul-27 12:32N 47°34' W 122°21'0 0.0
2015-Jul-27 11:33N 47°34' W 122°21'0 0.0
2015-Jul-27 11:31N 47°34' W 122°21'0 0.0
2015-Jul-27 10:33N 47°34' W 122°21'0 0.0
2015-Jul-27 10:31N 47°34' W 122°21'0 0.0
2015-Jul-27 09:33N 47°34' W 122°21'0 0.0
2015-Jul-27 09:31N 47°34' W 122°21'0 0.0
2015-Jul-27 08:33N 47°34' W 122°21'0 0.2
2015-Jul-27 08:31N 47°34' W 122°21'0 0.0
2015-Jul-27 07:33N 47°34' W 122°21'0 0.0
2015-Jul-27 07:31N 47°34' W 122°21'0 0.0
2015-Jul-27 06:33N 47°34' W 122°21'0 0.0
2015-Jul-27 06:31N 47°34' W 122°21'0 0.0
2015-Jul-27 06:06N 47°34' W 122°21'0 0.0
2015-Jul-27 05:33N 47°34' W 122°21'0 0.0
2015-Jul-27 04:33N 47°34' W 122°21'0 0.1
2015-Jul-27 04:31N 47°34' W 122°21'0 0.0
2015-Jul-27 03:33N 47°34' W 122°21'0 0.1
2015-Jul-27 03:31N 47°34' W 122°21'0 0.0
2015-Jul-27 02:33N 47°34' W 122°21'0 0.0
2015-Jul-27 02:31N 47°34' W 122°21'0 0.1
2015-Jul-27 01:33N 47°34' W 122°21'0 0.8
2015-Jul-27 01:30N 47°34' W 122°21'0 0.1
2015-Jul-27 00:33N 47°34' W 122°21'0 0.0
2015-Jul-27 00:30N 47°34' W 122°21'0 0.0
2015-Jul-26 23:33N 47°34' W 122°21'0 0.0
2015-Jul-26 23:30N 47°34' W 122°21'0 0.0
2015-Jul-26 22:33N 47°34' W 122°21'0 0.0
2015-Jul-26 22:30N 47°34' W 122°21'0 0.0
2015-Jul-26 21:33N 47°34' W 122°21'0 0.1
2015-Jul-26 21:30N 47°34' W 122°21'0 0.0
2015-Jul-26 20:33N 47°34' W 122°21'0 0.0
2015-Jul-26 20:25N 47°34' W 122°21'0 0.0
2015-Jul-26 19:33N 47°34' W 122°21'0 0.0
2015-Jul-26 19:30N 47°34' W 122°21'0 0.0
2015-Jul-26 18:33N 47°34' W 122°21'0 0.0
2015-Jul-26 18:30N 47°34' W 122°21'0 0.0
2015-Jul-26 17:33N 47°34' W 122°21'0 0.1
2015-Jul-26 17:30N 47°34' W 122°21'0 0.0
2015-Jul-26 16:33N 47°34' W 122°21'0 0.0
2015-Jul-26 16:24N 47°34' W 122°21'0 0.0
2015-Jul-26 15:33N 47°34' W 122°21'0 0.0
2015-Jul-26 14:33N 47°34' W 122°21'0 0.1
2015-Jul-26 13:30N 47°34' W 122°21'1 1.5
2015-Jul-26 12:58N 47°35' W 122°21'2 4.6
2015-Jul-26 12:33N 47°36' W 122°23'0 0.6
2015-Jul-26 12:29N 47°36' W 122°23'5 5.8
2015-Jul-26 11:33N 47°40' W 122°28'1 8.0
2015-Jul-26 11:29N 47°41' W 122°28'7 7.9
2015-Jul-26 10:33N 47°48' W 122°28'1 8.0
2015-Jul-26 10:29N 47°49' W 122°28'7 7.7
2015-Jul-26 09:33N 47°56' W 122°31'8 7.5
2015-Jul-26 08:33N 48°01' W 122°38'9 7.4
2015-Jul-26 07:22N 48°09' W 122°45'7 8.4
2015-Jul-26 06:32N 48°11' W 122°55'3 8.5
2015-Jul-26 06:07N 48°11' W 123°00'5 8.4
2015-Jul-26 05:33N 48°12' W 123°07'9 8.7
2015-Jul-26 04:33N 48°12' W 123°20'1 8.6
2015-Jul-26 04:27N 48°12' W 123°22'8 8.6
2015-Jul-26 03:33N 48°12' W 123°33'1 7.8
2015-Jul-26 03:27N 48°12' W 123°34'7 7.8
2015-Jul-26 02:33N 48°12' W 123°45'5 7.7
2015-Jul-26 01:52N 48°12' W 123°53'3 7.5
2015-Jul-26 01:27N 48°13' W 123°57'1 7.9
2015-Jul-26 01:23N 48°13' W 123°58'6 7.5
2015-Jul-26 00:33N 48°16' W 124°07'7 7.3
2015-Jul-25 23:33N 48°19' W 124°17'7 7.3
2015-Jul-25 22:33N 48°22' W 124°26'7 6.8
2015-Jul-25 21:33N 48°25' W 124°36'8 8.0
2015-Jul-25 20:32N 48°27' W 124°47'8 7.8
2015-Jul-25 19:33N 48°25' W 124°59'101 7.8
2015-Jul-25 06:31N 46°44' W 125°15'9 8.2
2015-Jul-25 05:28N 46°36' W 125°14'8 8.2
2015-Jul-25 04:32N 46°28' W 125°13'10 7.9
2015-Jul-25 03:16N 46°18' W 125°13'6 7.8
2015-Jul-25 02:33N 46°13' W 125°12'7 7.3
2015-Jul-25 01:33N 46°05' W 125°10'7 7.5
2015-Jul-25 00:33N 45°58' W 125°08'8 7.7
2015-Jul-24 23:33N 45°51' W 125°06'9 7.5
2015-Jul-24 22:18N 45°41' W 125°03'6 7.9
2015-Jul-24 21:33N 45°35' W 125°04'56 7.9
2015-Jul-24 14:32N 44°40' W 125°11'  
2015-Jul-21 15:25N 38°42' W 123°52'15 4.5
2015-Jul-21 12:05N 38°30' W 123°40'3 5.7
2015-Jul-21 11:33N 38°28' W 123°38'6 6.0
2015-Jul-21 10:33N 38°23' W 123°33'6 6.1
2015-Jul-21 09:33N 38°18' W 123°29'6 6.5
2015-Jul-21 08:33N 38°13' W 123°24'7 6.8
2015-Jul-21 07:33N 38°08' W 123°18'6 6.4
2015-Jul-21 06:33N 38°03' W 123°13'6 6.1
2015-Jul-21 05:33N 37°58' W 123°08'6 6.1
2015-Jul-21 04:33N 37°55' W 123°01'  

Dump ship's entire track history